createdAt,value
2022-09-29T00:00:39.995Z,0.00
2022-09-29T00:03:08.315Z,0.10
2022-09-29T00:05:36.248Z,0.00
2022-09-29T00:08:05.625Z,0.03
2022-09-29T00:10:33.473Z,0.03
2022-09-29T00:13:01.284Z,0.10
2022-09-29T00:15:29.048Z,0.00
2022-09-29T00:18:13.307Z,0.00
2022-09-29T00:20:41.786Z,0.05
2022-09-29T00:23:10.925Z,0.00
2022-09-29T00:25:38.682Z,0.10
2022-09-29T00:28:06.397Z,0.43
2022-09-29T00:30:34.117Z,0.00
2022-09-29T00:33:01.935Z,0.10
2022-09-29T00:35:29.647Z,0.00
2022-09-29T00:37:57.385Z,0.10
2022-09-29T00:40:26.530Z,0.00
2022-09-29T00:42:54.397Z,0.10
2022-09-29T00:45:23.518Z,0.00
2022-09-29T00:47:59.426Z,0.00
2022-09-29T00:50:31.783Z,0.00
2022-09-29T00:53:04.107Z,0.10
2022-09-29T00:55:39.928Z,0.10
2022-09-29T00:58:14.322Z,0.00
2022-09-29T01:00:43.794Z,0.35
2022-09-29T01:03:14.314Z,0.00
2022-09-29T01:05:48.480Z,0.00
2022-09-29T01:08:23.381Z,0.00
2022-09-29T01:10:54.641Z,0.00
2022-09-29T01:13:23.393Z,0.00
2022-09-29T01:15:51.335Z,0.10
2022-09-29T01:18:19.245Z,0.00
2022-09-29T01:20:54.302Z,0.00
2022-09-29T01:24:09.888Z,0.00
2022-09-29T01:27:02.641Z,0.03
2022-09-29T01:30:04.076Z,0.00
2022-09-29T01:32:48.068Z,0.05
2022-09-29T01:35:21.512Z,0.05
2022-09-29T01:38:01.958Z,0.00
2022-09-29T01:40:39.549Z,0.10
2022-09-29T01:43:10.543Z,0.00
2022-09-29T01:45:41.345Z,0.10
2022-09-29T01:48:16.028Z,0.10
2022-09-29T01:50:48.626Z,0.00
2022-09-29T01:53:21.503Z,0.10
2022-09-29T01:55:53.240Z,0.10
2022-09-29T01:58:25.707Z,0.00
2022-09-29T02:00:58.089Z,0.00
2022-09-29T02:03:31.611Z,1.13
2022-09-29T02:06:02.665Z,0.00
2022-09-29T02:08:34.303Z,0.00
2022-09-29T02:11:05.086Z,0.10
2022-09-29T02:13:37.177Z,0.10
2022-09-29T02:16:08.084Z,0.05
2022-09-29T02:18:44.824Z,0.08
2022-09-29T02:21:12.684Z,0.10
2022-09-29T02:23:40.767Z,0.10
2022-09-29T02:26:08.484Z,0.00
2022-09-29T02:28:36.288Z,0.10
2022-09-29T02:31:05.056Z,0.00
2022-09-29T02:33:33.014Z,0.00
2022-09-29T02:36:19.618Z,0.00
2022-09-29T02:38:54.079Z,0.10
2022-09-29T02:41:50.005Z,0.00
2022-09-29T02:44:47.978Z,0.10
2022-09-29T02:47:39.064Z,0.10
2022-09-29T02:50:32.411Z,0.00
2022-09-29T02:53:06.501Z,0.08
2022-09-29T02:55:41.721Z,0.10
2022-09-29T02:58:16.606Z,0.10
2022-09-29T03:00:45.154Z,0.10
2022-09-29T03:03:13.043Z,0.10
2022-09-29T03:05:41.025Z,0.10
2022-09-29T03:08:10.126Z,0.10
2022-09-29T03:10:37.957Z,0.10
2022-09-29T03:13:05.724Z,0.10
2022-09-29T03:15:33.533Z,0.10
2022-09-29T03:18:05.223Z,0.10
2022-09-29T03:20:36.069Z,0.20
2022-09-29T03:23:03.854Z,0.10
2022-09-29T03:25:32.925Z,0.10
2022-09-29T03:28:00.625Z,0.20
2022-09-29T03:30:28.365Z,0.10
2022-09-29T03:32:56.105Z,0.10
2022-09-29T03:35:23.926Z,0.10
2022-09-29T03:37:51.609Z,0.10
2022-09-29T03:40:19.449Z,0.10
2022-09-29T03:42:48.590Z,0.10
2022-09-29T03:45:16.514Z,0.20
2022-09-29T03:47:44.229Z,0.22
2022-09-29T03:50:12.166Z,0.10
2022-09-29T03:52:39.890Z,0.10
2022-09-29T03:55:08.835Z,0.13
2022-09-29T03:57:36.550Z,0.10
2022-09-29T04:00:06.256Z,0.30
2022-09-29T04:02:36.108Z,0.10
2022-09-29T04:05:04.006Z,0.22
2022-09-29T04:07:32.485Z,0.30
2022-09-29T04:10:00.302Z,0.35
2022-09-29T04:12:28.047Z,0.20
2022-09-29T04:14:55.833Z,0.20
2022-09-29T04:17:25.126Z,0.20
2022-09-29T04:19:52.949Z,0.10
2022-09-29T04:22:21.594Z,0.17
2022-09-29T04:24:49.328Z,0.22
2022-09-29T04:27:17.611Z,0.30
2022-09-29T04:29:45.543Z,0.30
2022-09-29T04:32:13.259Z,0.20
2022-09-29T04:34:42.989Z,0.45
2022-09-29T04:37:11.815Z,0.10
2022-09-29T04:39:39.930Z,0.30
2022-09-29T04:42:08.107Z,0.30
2022-09-29T04:44:35.835Z,0.47
2022-09-29T04:47:03.615Z,0.85
2022-09-29T04:49:31.314Z,0.30
2022-09-29T04:52:00.469Z,1.05
2022-09-29T04:54:37.466Z,0.50
2022-09-29T04:57:05.942Z,1.05
2022-09-29T04:59:34.149Z,0.65
2022-09-29T05:02:01.994Z,0.68
2022-09-29T05:04:29.820Z,0.45
2022-09-29T05:06:57.673Z,1.17
2022-09-29T05:09:31.116Z,0.47
2022-09-29T05:12:01.106Z,0.73
2022-09-29T05:14:29.095Z,0.65
2022-09-29T05:16:57.425Z,1.02
2022-09-29T05:19:25.237Z,0.55
2022-09-29T05:21:52.996Z,0.68
2022-09-29T05:24:20.729Z,0.60
2022-09-29T05:26:50.671Z,0.95
2022-09-29T05:29:20.715Z,0.40
2022-09-29T05:31:48.572Z,0.55
2022-09-29T05:34:16.392Z,0.77
2022-09-29T05:36:44.288Z,0.80
2022-09-29T05:39:12.535Z,0.98
2022-09-29T05:41:40.597Z,0.75
2022-09-29T05:44:09.697Z,1.10
2022-09-29T05:46:37.385Z,0.60
2022-09-29T05:49:05.397Z,1.45
2022-09-29T05:51:33.193Z,1.33
2022-09-29T05:54:02.034Z,1.17
2022-09-29T05:56:29.795Z,1.45
2022-09-29T05:58:57.553Z,1.13
2022-09-29T06:01:27.733Z,1.40
2022-09-29T06:03:55.835Z,1.02
2022-09-29T06:06:26.657Z,1.80
2022-09-29T06:08:55.185Z,1.33
2022-09-29T06:11:24.843Z,1.48
2022-09-29T06:13:53.977Z,1.10
2022-09-29T06:16:23.915Z,1.13
2022-09-29T06:18:53.726Z,0.63
2022-09-29T06:21:23.785Z,2.20
2022-09-29T06:23:51.970Z,0.60
2022-09-29T06:26:23.936Z,1.15
2022-09-29T06:28:53.064Z,0.70
2022-09-29T06:31:24.005Z,1.50
2022-09-29T06:33:53.968Z,1.40
2022-09-29T06:36:42.092Z,1.10
2022-09-29T06:39:13.208Z,2.00
2022-09-29T06:41:41.515Z,1.30
2022-09-29T06:44:09.860Z,0.98
2022-09-29T06:46:37.651Z,1.42
2022-09-29T06:49:06.761Z,1.73
2022-09-29T06:51:45.491Z,1.92
2022-09-29T06:54:14.794Z,1.45
2022-09-29T06:56:42.966Z,1.30
2022-09-29T06:59:10.720Z,1.65
2022-09-29T07:01:38.573Z,1.88
2022-09-29T07:04:08.296Z,1.00
2022-09-29T07:06:36.089Z,0.90
2022-09-29T07:09:04.205Z,1.98
2022-09-29T07:11:31.993Z,1.50
2022-09-29T07:13:59.749Z,1.25
2022-09-29T07:16:27.575Z,1.75
2022-09-29T07:18:55.334Z,1.70
2022-09-29T07:21:24.459Z,1.10
2022-09-29T07:23:52.189Z,1.67
2022-09-29T07:26:20.091Z,2.75
2022-09-29T07:28:48.219Z,1.40
2022-09-29T07:31:18.247Z,1.10
2022-09-29T07:33:47.595Z,1.25
2022-09-29T07:36:17.171Z,2.30
2022-09-29T07:38:48.835Z,1.33
2022-09-29T07:41:18.043Z,1.77
2022-09-29T07:43:45.772Z,1.65
2022-09-29T07:46:13.844Z,1.40
2022-09-29T07:48:42.361Z,1.60
2022-09-29T07:51:12.575Z,0.98
2022-09-29T07:53:40.895Z,1.77
2022-09-29T07:56:12.831Z,1.92
2022-09-29T07:58:42.068Z,1.58
2022-09-29T08:01:13.236Z,1.40
2022-09-29T08:03:42.735Z,1.92
2022-09-29T08:06:11.307Z,1.60
2022-09-29T08:08:40.611Z,1.38
2022-09-29T08:11:20.140Z,2.38
2022-09-29T08:13:54.108Z,1.10
2022-09-29T08:16:22.391Z,1.65
2022-09-29T08:18:50.721Z,1.13
2022-09-29T08:21:18.527Z,0.73
2022-09-29T08:23:46.585Z,1.50
2022-09-29T08:26:17.919Z,1.40
2022-09-29T08:28:47.708Z,1.63
2022-09-29T08:31:21.189Z,2.17
2022-09-29T08:33:51.239Z,0.75
2022-09-29T08:36:19.231Z,1.90
2022-09-29T08:38:48.834Z,1.75
2022-09-29T08:41:30.373Z,2.53
2022-09-29T08:44:04.048Z,1.95
2022-09-29T08:46:36.752Z,1.48
2022-09-29T08:49:10.321Z,0.95
2022-09-29T08:51:45.080Z,1.38
2022-09-29T08:54:34.271Z,0.68
2022-09-29T08:57:07.848Z,1.00
2022-09-29T08:59:36.171Z,1.20
2022-09-29T09:02:31.104Z,1.15
2022-09-29T09:05:19.477Z,0.55
2022-09-29T09:08:00.568Z,1.20
2022-09-29T09:10:41.237Z,0.52
2022-09-29T09:13:20.916Z,0.95
2022-09-29T09:16:11.013Z,0.30
2022-09-29T09:19:15.373Z,0.20
2022-09-29T09:21:45.231Z,0.77
2022-09-29T09:24:20.337Z,0.45
2022-09-29T09:26:49.399Z,0.47
2022-09-29T09:29:26.286Z,0.52
2022-09-29T09:32:04.082Z,0.30
2022-09-29T09:34:44.163Z,0.93
2022-09-29T09:37:22.518Z,0.20
2022-09-29T09:40:00.441Z,0.20
2022-09-29T09:42:31.935Z,0.40
2022-09-29T09:45:05.908Z,0.20
2022-09-29T09:47:39.099Z,0.10
2022-09-29T09:50:15.861Z,0.10
2022-09-29T09:52:48.761Z,0.10
2022-09-29T09:55:18.647Z,0.10
2022-09-29T09:58:22.021Z,0.20
2022-09-29T10:00:56.575Z,0.20
2022-09-29T10:03:24.369Z,0.10
2022-09-29T10:05:52.265Z,0.10
2022-09-29T10:08:26.245Z,0.10
2022-09-29T10:10:59.560Z,0.10
2022-09-29T10:13:30.076Z,0.15
2022-09-29T10:16:10.892Z,0.10
2022-09-29T10:18:41.642Z,0.10
2022-09-29T10:21:23.337Z,0.10
2022-09-29T10:23:55.761Z,0.10
2022-09-29T10:26:26.717Z,0.10
2022-09-29T10:28:59.354Z,0.10
2022-09-29T10:31:31.347Z,0.10
2022-09-29T10:34:02.413Z,0.10
2022-09-29T10:36:33.630Z,0.10
2022-09-29T10:39:03.742Z,0.20
2022-09-29T10:41:54.011Z,0.10
2022-09-29T10:44:22.952Z,0.10
2022-09-29T10:46:55.820Z,0.10
2022-09-29T10:49:25.376Z,0.10
2022-09-29T10:51:57.526Z,0.10
2022-09-29T10:54:27.249Z,0.10
2022-09-29T10:56:56.930Z,0.10
2022-09-29T10:59:26.187Z,0.10
2022-09-29T11:01:59.729Z,0.05
2022-09-29T11:04:30.660Z,0.10
2022-09-29T11:07:06.698Z,0.08
2022-09-29T11:09:39.766Z,0.00
2022-09-29T11:12:28.228Z,0.10
2022-09-29T11:14:56.363Z,0.08
2022-09-29T11:17:27.276Z,0.03
2022-09-29T11:19:56.676Z,0.10
2022-09-29T11:22:52.469Z,0.10
2022-09-29T11:25:33.294Z,0.10
2022-09-29T11:28:26.751Z,0.10
2022-09-29T11:31:09.501Z,0.10
2022-09-29T11:33:49.693Z,0.10
2022-09-29T11:36:27.582Z,0.10
2022-09-29T11:39:06.440Z,0.00
2022-09-29T11:41:50.345Z,0.10
2022-09-29T11:44:43.283Z,0.08
2022-09-29T11:47:28.541Z,0.00
2022-09-29T11:50:15.012Z,0.00
2022-09-29T11:53:00.870Z,0.00
2022-09-29T11:55:45.225Z,0.00
2022-09-29T11:58:28.346Z,0.00
2022-09-29T12:01:14.106Z,0.00
2022-09-29T12:03:48.066Z,0.00
2022-09-29T12:06:37.362Z,0.00
2022-09-29T12:09:19.661Z,0.00
2022-09-29T12:12:18.860Z,0.00
2022-09-29T12:15:01.051Z,0.00
2022-09-29T12:17:34.249Z,0.00
2022-09-29T12:20:07.128Z,0.32
2022-09-29T12:22:37.395Z,0.00
2022-09-29T12:25:14.534Z,0.00
2022-09-29T12:27:45.420Z,0.00
2022-09-29T12:30:20.901Z,0.00
2022-09-29T12:32:53.750Z,0.00
2022-09-29T12:35:28.149Z,0.00
2022-09-29T12:38:07.358Z,0.00
2022-09-29T12:40:39.293Z,0.00
2022-09-29T12:43:15.750Z,0.00
2022-09-29T12:45:53.234Z,0.00
2022-09-29T12:48:32.640Z,0.00
2022-09-29T12:51:04.578Z,0.00
2022-09-29T12:53:38.419Z,0.00
2022-09-29T12:56:11.678Z,0.00
2022-09-29T12:58:45.954Z,0.00
2022-09-29T13:01:28.070Z,0.00
2022-09-29T13:04:34.850Z,0.00
2022-09-29T13:07:18.513Z,0.00
2022-09-29T13:10:22.531Z,0.00
2022-09-29T13:13:09.217Z,0.00
2022-09-29T13:15:56.326Z,0.00
2022-09-29T13:19:20.363Z,0.00
2022-09-29T13:22:02.182Z,0.00
2022-09-29T13:24:50.064Z,0.00
2022-09-29T13:27:34.071Z,0.00
2022-09-29T13:30:09.336Z,0.00
2022-09-29T13:32:42.090Z,0.00
2022-09-29T13:35:17.371Z,0.00
2022-09-29T13:37:49.653Z,0.00
2022-09-29T13:40:22.025Z,0.00
2022-09-29T13:42:55.520Z,0.00
2022-09-29T13:45:46.732Z,0.00
2022-09-29T13:48:52.445Z,0.00
2022-09-29T13:51:43.532Z,0.00
2022-09-29T13:54:36.461Z,0.00
2022-09-29T13:57:28.886Z,0.00
2022-09-29T14:00:22.649Z,0.00
2022-09-29T14:03:02.934Z,0.00
2022-09-29T14:05:40.748Z,0.00
2022-09-29T14:08:23.693Z,0.00
2022-09-29T14:10:59.747Z,0.00
2022-09-29T14:13:31.133Z,0.00
2022-09-29T14:16:18.547Z,0.00
2022-09-29T14:18:49.662Z,0.00
2022-09-29T14:21:56.284Z,0.00
2022-09-29T14:24:44.468Z,0.00
2022-09-29T14:27:27.954Z,0.00
2022-09-29T14:30:02.277Z,0.00
2022-09-29T14:32:42.460Z,0.00
2022-09-29T14:35:26.314Z,0.00
2022-09-29T14:38:01.728Z,0.00
2022-09-29T14:40:29.752Z,0.20
2022-09-29T14:43:13.501Z,0.00
2022-09-29T14:46:14.379Z,0.00
2022-09-29T14:49:13.530Z,0.00
2022-09-29T14:52:01.085Z,0.00
2022-09-29T14:54:43.109Z,0.00
2022-09-29T14:57:35.293Z,0.00
2022-09-29T15:00:07.858Z,0.00
2022-09-29T15:02:37.410Z,0.00
2022-09-29T15:05:31.187Z,0.00
2022-09-29T15:08:00.250Z,0.00
2022-09-29T15:10:30.594Z,0.00
2022-09-29T15:13:20.020Z,0.00
2022-09-29T15:15:49.799Z,0.00
2022-09-29T15:18:33.075Z,0.00
2022-09-29T15:21:07.767Z,0.00
2022-09-29T15:24:08.296Z,0.00
2022-09-29T15:26:36.916Z,0.00
2022-09-29T15:29:07.624Z,0.00
2022-09-29T15:31:35.853Z,0.00
2022-09-29T15:34:05.246Z,0.00
2022-09-29T15:36:37.479Z,0.00
2022-09-29T15:39:07.773Z,0.00
2022-09-29T15:41:36.288Z,0.00
2022-09-29T15:44:13.161Z,0.00
2022-09-29T15:46:48.813Z,0.00
2022-09-29T15:49:19.135Z,0.00
2022-09-29T15:51:57.959Z,0.00
2022-09-29T15:54:27.323Z,0.00
2022-09-29T15:57:12.834Z,0.00
2022-09-29T15:59:43.254Z,0.00
2022-09-29T16:02:22.010Z,0.00
2022-09-29T16:04:54.903Z,0.00
2022-09-29T16:07:29.121Z,0.00
2022-09-29T16:10:03.339Z,0.00
2022-09-29T16:12:36.219Z,0.00
2022-09-29T16:15:04.228Z,0.00
2022-09-29T16:17:32.050Z,0.00
2022-09-29T16:20:01.662Z,0.00
2022-09-29T16:22:30.981Z,0.00
2022-09-29T16:25:10.670Z,0.00
2022-09-29T16:27:54.717Z,0.00
2022-09-29T16:30:25.488Z,0.00
2022-09-29T16:32:57.113Z,0.00
2022-09-29T16:35:57.387Z,0.00
2022-09-29T16:38:35.419Z,0.00
2022-09-29T16:41:14.559Z,0.00
2022-09-29T16:43:45.007Z,0.00
2022-09-29T16:46:16.281Z,0.00
2022-09-29T16:48:46.093Z,0.00
2022-09-29T16:51:38.265Z,0.00
2022-09-29T16:54:15.800Z,0.00
2022-09-29T16:56:45.386Z,0.00
2022-09-29T16:59:16.224Z,0.00
2022-09-29T17:01:46.173Z,0.00
2022-09-29T17:04:14.098Z,0.00
2022-09-29T17:06:47.049Z,0.00
2022-09-29T17:09:21.032Z,0.00
2022-09-29T17:11:49.456Z,0.00
2022-09-29T17:14:18.396Z,0.00
2022-09-29T17:16:46.180Z,0.00
2022-09-29T17:19:14.157Z,0.00
2022-09-29T17:21:42.067Z,0.00
2022-09-29T17:24:09.854Z,0.00
2022-09-29T17:26:58.731Z,0.00
2022-09-29T17:29:26.527Z,0.00
2022-09-29T17:31:54.345Z,0.00
2022-09-29T17:34:25.559Z,0.00
2022-09-29T17:36:53.939Z,0.00
2022-09-29T17:39:21.814Z,0.00
2022-09-29T17:41:50.988Z,0.00
2022-09-29T17:44:18.919Z,0.00
2022-09-29T17:46:47.060Z,0.00
2022-09-29T17:49:17.271Z,0.00
2022-09-29T17:51:45.050Z,0.00
2022-09-29T17:54:12.940Z,0.00
2022-09-29T17:56:43.890Z,0.00
2022-09-29T17:59:14.296Z,0.00
2022-09-29T18:01:42.459Z,0.00
2022-09-29T18:04:11.403Z,0.00
2022-09-29T18:06:39.315Z,0.10
2022-09-29T18:09:17.712Z,0.15
2022-09-29T18:11:45.979Z,0.10
2022-09-29T18:14:15.082Z,0.10
2022-09-29T18:16:42.872Z,0.00
2022-09-29T18:19:17.188Z,0.00
2022-09-29T18:21:45.152Z,0.10
2022-09-29T18:24:13.225Z,0.10
2022-09-29T18:26:44.026Z,0.10
2022-09-29T18:29:18.889Z,0.00
2022-09-29T18:31:47.864Z,0.10
2022-09-29T18:34:17.789Z,0.00
2022-09-29T18:36:46.356Z,0.10
2022-09-29T18:39:14.303Z,0.10
2022-09-29T18:41:42.208Z,0.10
2022-09-29T18:44:24.043Z,0.00
2022-09-29T18:46:52.015Z,0.03
2022-09-29T18:49:19.872Z,0.05
2022-09-29T18:51:47.562Z,0.10
2022-09-29T18:54:16.032Z,0.10
2022-09-29T18:56:43.751Z,0.10
2022-09-29T18:59:12.720Z,0.10
2022-09-29T19:01:42.287Z,0.10
2022-09-29T19:04:10.904Z,0.10
2022-09-29T19:06:38.668Z,0.10
2022-09-29T19:09:06.504Z,0.10
2022-09-29T19:11:34.370Z,0.38
2022-09-29T19:14:03.577Z,0.10
2022-09-29T19:16:33.969Z,0.40
2022-09-29T19:19:04.504Z,0.10
2022-09-29T19:21:33.316Z,0.10
2022-09-29T19:24:01.465Z,0.17
2022-09-29T19:26:30.371Z,0.10
2022-09-29T19:28:58.120Z,0.20
2022-09-29T19:31:25.904Z,0.20
2022-09-29T19:33:54.931Z,0.35
2022-09-29T19:36:24.071Z,0.20
2022-09-29T19:38:51.992Z,0.13
2022-09-29T19:41:22.905Z,0.13
2022-09-29T19:43:50.845Z,0.10
2022-09-29T19:46:21.159Z,0.10
2022-09-29T19:48:49.301Z,0.10
2022-09-29T19:51:35.455Z,0.13
2022-09-29T19:54:14.634Z,0.10
2022-09-29T19:56:44.561Z,0.10
2022-09-29T19:59:13.917Z,0.10
2022-09-29T20:01:42.070Z,0.20
2022-09-29T20:04:11.586Z,0.40
2022-09-29T20:06:39.829Z,0.10
2022-09-29T20:09:13.919Z,0.13
2022-09-29T20:11:41.783Z,0.10
2022-09-29T20:14:13.022Z,0.10
2022-09-29T20:16:43.108Z,0.10
2022-09-29T20:19:14.000Z,0.10
2022-09-29T20:21:41.850Z,0.10
2022-09-29T20:24:12.112Z,0.10
2022-09-29T20:26:39.801Z,0.10
2022-09-29T20:29:08.382Z,0.10
2022-09-29T20:31:38.600Z,0.10
2022-09-29T20:34:07.108Z,0.10
2022-09-29T20:36:35.912Z,0.10
2022-09-29T20:39:03.729Z,0.20
2022-09-29T20:41:32.799Z,0.10
2022-09-29T20:44:00.502Z,0.10
2022-09-29T20:46:28.564Z,0.15
2022-09-29T20:48:58.158Z,0.20
2022-09-29T20:51:28.664Z,0.10
2022-09-29T20:53:58.620Z,0.25
2022-09-29T20:56:31.228Z,0.10
2022-09-29T20:59:01.012Z,0.13
2022-09-29T21:01:30.468Z,0.10
2022-09-29T21:04:00.455Z,0.10
2022-09-29T21:06:30.108Z,0.10
2022-09-29T21:08:59.569Z,0.10
2022-09-29T21:11:27.665Z,0.10
2022-09-29T21:13:57.850Z,0.10
2022-09-29T21:16:27.159Z,0.10
2022-09-29T21:18:55.247Z,0.10
2022-09-29T21:21:24.001Z,0.20
2022-09-29T21:23:51.901Z,0.10
2022-09-29T21:26:23.493Z,0.03
2022-09-29T21:28:53.310Z,0.10
2022-09-29T21:31:23.026Z,0.05
2022-09-29T21:33:55.436Z,0.10
2022-09-29T21:36:24.322Z,0.10
2022-09-29T21:38:52.999Z,0.10
2022-09-29T21:41:23.651Z,0.05
2022-09-29T21:43:53.351Z,0.10
2022-09-29T21:46:23.399Z,0.00
2022-09-29T21:48:53.213Z,0.10
2022-09-29T21:51:24.704Z,0.08
2022-09-29T21:53:53.356Z,0.00
2022-09-29T21:56:23.910Z,0.10
2022-09-29T21:58:54.459Z,0.10
2022-09-29T22:01:22.587Z,1.08
2022-09-29T22:03:51.680Z,0.10
2022-09-29T22:06:22.663Z,0.00
2022-09-29T22:08:51.457Z,0.00
2022-09-29T22:11:21.908Z,0.10
2022-09-29T22:13:51.145Z,0.10
2022-09-29T22:16:21.733Z,0.00
2022-09-29T22:19:06.130Z,0.10
2022-09-29T22:21:40.512Z,0.08
2022-09-29T22:24:10.457Z,0.10
2022-09-29T22:26:40.329Z,0.00
2022-09-29T22:29:08.231Z,0.10
2022-09-29T22:31:40.319Z,0.05
2022-09-29T22:34:08.961Z,0.10
2022-09-29T22:36:37.048Z,0.10
2022-09-29T22:39:07.453Z,0.00
2022-09-29T22:41:36.884Z,0.10
2022-09-29T22:44:05.309Z,0.10
2022-09-29T22:46:34.821Z,0.10
2022-09-29T22:49:02.910Z,0.00
2022-09-29T22:51:30.836Z,0.10
2022-09-29T22:53:59.648Z,0.00
2022-09-29T22:56:29.365Z,0.00
2022-09-29T22:59:01.930Z,0.10
2022-09-29T23:01:30.576Z,0.10
2022-09-29T23:03:58.624Z,0.10
2022-09-29T23:06:26.670Z,0.10
2022-09-29T23:08:56.395Z,0.00
2022-09-29T23:11:24.375Z,0.00
2022-09-29T23:13:54.009Z,0.32
2022-09-29T23:16:22.163Z,0.00
2022-09-29T23:18:54.991Z,0.00
2022-09-29T23:21:24.242Z,0.00
2022-09-29T23:23:55.386Z,0.10
2022-09-29T23:26:23.869Z,0.00
2022-09-29T23:28:55.181Z,0.10
2022-09-29T23:31:24.053Z,0.10
2022-09-29T23:33:53.106Z,0.10
2022-09-29T23:36:20.987Z,0.10
2022-09-29T23:39:06.400Z,0.10
2022-09-29T23:41:34.712Z,0.10
2022-09-29T23:44:05.942Z,0.10
2022-09-29T23:46:35.969Z,0.00
2022-09-29T23:49:09.424Z,0.10
2022-09-29T23:51:39.095Z,0.10
2022-09-29T23:54:08.030Z,0.10
2022-09-29T23:56:36.232Z,0.10
2022-09-29T23:59:06.441Z,0.10
